Terminal Aerodrome Forecast
Issued by NWS Twin Cities, MN

Home | Current Version | Previous Version | Text Only | Print | Product List | Glossary Off
Versions: 1 2 3 4 5 6 7 8 9 10 11 12 13 14 15 16 17 18 19 20 21 22 23 24 25 26 27 28 29 30 31

000
FTUS43 KMPX 241739
TAFMSP
TAF
KMSP 241739Z 2418/2524 25005KT P6SM FEW120
     FM250200 VRB03KT P6SM BKN025
     FM250400 05010KT 3SM -SN OVC015
      TEMPO 2504/2508 1SM -SN VV006
     FM250800 03011G20KT 6SM -SN OVC014
     FM251100 03012KT P6SM BKN015
     FM251500 03010KT P6SM SCT015=

USA.gov is the U.S. government's official web portal to all federal, state and local government web resources and services.